Avondale, Arizona
Current Conditions -  °F | °C
As of 1:47 PM on Monday 20 Oct 2014 (Local Time) from KGYR Reporting Station
Few Clouds Few Clouds  
Wind Chill: 86°   Ceiling: Unl
Heat Index: 86°   Visibility: 10mi
Dew Point: 54°   Wind: 7mph
Humidity: 33%   Direction: 110°ESE
Pressure: 29.86"   Gusts: NA
Location:  33.44°N, 112.34°W
Report Text: KGYR 202047Z 11006KT 10SM FEW070 30/12 A2986
Loading
Personal Weather Stations






























Interactive Weather Map
Tropical Storm Tracking
New forecast layout! Learn more

10-Day Weather Forecast

Advertisements
Track Severe Weather on mobile